sensor_id;sensor_type;location;lat;lon;timestamp;pressure;altitude;pressure_sealevel;temperature;humidity
42111;BME280;27766;52.174;5.456;2023-02-02T00:01:00;101958.81;;;6.38;100.00
42111;BME280;27766;52.174;5.456;2023-02-02T00:03:28;101956.31;;;6.39;100.00
42111;BME280;27766;52.174;5.456;2023-02-02T00:05:56;101951.00;;;6.36;100.00
42111;BME280;27766;52.174;5.456;2023-02-02T00:08:23;101954.88;;;6.28;100.00
42111;BME280;27766;52.174;5.456;2023-02-02T00:10:50;101956.56;;;6.27;100.00
42111;BME280;27766;52.174;5.456;2023-02-02T00:13:18;101946.66;;;6.18;100.00
42111;BME280;27766;52.174;5.456;2023-02-02T00:15:45;101965.63;;;6.21;100.00
42111;BME280;27766;52.174;5.456;2023-02-02T00:18:12;101954.53;;;6.22;100.00
42111;BME280;27766;52.174;5.456;2023-02-02T00:20:39;101956.16;;;6.20;100.00
42111;BME280;27766;52.174;5.456;2023-02-02T00:23:06;101959.59;;;6.20;100.00
42111;BME280;27766;52.174;5.456;2023-02-02T00:25:33;101951.94;;;6.22;100.00
42111;BME280;27766;52.174;5.456;2023-02-02T00:28:00;101957.81;;;6.19;100.00
42111;BME280;27766;52.174;5.456;2023-02-02T00:30:27;101951.88;;;6.20;100.00
42111;BME280;27766;52.174;5.456;2023-02-02T00:32:54;101960.50;;;6.21;100.00
42111;BME280;27766;52.174;5.456;2023-02-02T00:35:21;101955.19;;;6.17;100.00
42111;BME280;27766;52.174;5.456;2023-02-02T00:37:49;101956.84;;;6.17;100.00
42111;BME280;27766;52.174;5.456;2023-02-02T00:40:16;101952.53;;;6.16;100.00
42111;BME280;27766;52.174;5.456;2023-02-02T00:42:43;101954.44;;;6.20;100.00
42111;BME280;27766;52.174;5.456;2023-02-02T00:45:14;101948.44;;;6.20;100.00
42111;BME280;27766;52.174;5.456;2023-02-02T00:47:47;101958.78;;;6.21;100.00
42111;BME280;27766;52.174;5.456;2023-02-02T00:50:17;101955.44;;;6.22;100.00
42111;BME280;27766;52.174;5.456;2023-02-02T00:52:48;101952.84;;;6.22;100.00
42111;BME280;27766;52.174;5.456;2023-02-02T00:55:15;101959.59;;;6.20;100.00
42111;BME280;27766;52.174;5.456;2023-02-02T00:57:43;101947.72;;;6.22;100.00
42111;BME280;27766;52.174;5.456;2023-02-02T01:00:13;101955.19;;;6.17;100.00
42111;BME280;27766;52.174;5.456;2023-02-02T01:02:42;101970.84;;;6.22;100.00
42111;BME280;27766;52.174;5.456;2023-02-02T01:05:12;101963.13;;;6.22;100.00
42111;BME280;27766;52.174;5.456;2023-02-02T01:07:39;101968.44;;;6.25;100.00
42111;BME280;27766;52.174;5.456;2023-02-02T01:10:10;101963.28;;;6.25;100.00
42111;BME280;27766;52.174;5.456;2023-02-02T01:12:39;101957.19;;;6.23;100.00
42111;BME280;27766;52.174;5.456;2023-02-02T01:15:07;101958.53;;;6.16;100.00
42111;BME280;27766;52.174;5.456;2023-02-02T01:17:35;101971.41;;;6.16;100.00
42111;BME280;27766;52.174;5.456;2023-02-02T01:20:03;101976.63;;;6.18;100.00
42111;BME280;27766;52.174;5.456;2023-02-02T01:22:31;101967.97;;;6.16;100.00
42111;BME280;27766;52.174;5.456;2023-02-02T01:25:00;101963.50;;;6.13;100.00
42111;BME280;27766;52.174;5.456;2023-02-02T01:27:27;101981.59;;;6.15;100.00
42111;BME280;27766;52.174;5.456;2023-02-02T01:29:54;101978.84;;;6.12;100.00
42111;BME280;27766;52.174;5.456;2023-02-02T01:32:21;101985.78;;;6.13;100.00
42111;BME280;27766;52.174;5.456;2023-02-02T01:34:48;101985.53;;;6.08;100.00
42111;BME280;27766;52.174;5.456;2023-02-02T01:37:15;101986.84;;;6.01;100.00
42111;BME280;27766;52.174;5.456;2023-02-02T01:39:42;101986.66;;;5.98;100.00
42111;BME280;27766;52.174;5.456;2023-02-02T01:42:13;101992.81;;;6.00;100.00
42111;BME280;27766;52.174;5.456;2023-02-02T01:45:04;101994.19;;;5.95;100.00
42111;BME280;27766;52.174;5.456;2023-02-02T01:47:38;101991.38;;;5.91;100.00
42111;BME280;27766;52.174;5.456;2023-02-02T01:50:08;101997.22;;;5.88;100.00
42111;BME280;27766;52.174;5.456;2023-02-02T01:52:36;102000.53;;;5.85;100.00
42111;BME280;27766;52.174;5.456;2023-02-02T01:55:07;101993.44;;;5.81;100.00
42111;BME280;27766;52.174;5.456;2023-02-02T01:57:58;102004.53;;;5.80;100.00
42111;BME280;27766;52.174;5.456;2023-02-02T02:00:26;101990.63;;;5.77;100.00
42111;BME280;27766;52.174;5.456;2023-02-02T02:03:04;101989.56;;;5.73;100.00
42111;BME280;27766;52.174;5.456;2023-02-02T02:05:41;101992.84;;;5.70;100.00
42111;BME280;27766;52.174;5.456;2023-02-02T02:08:17;101989.13;;;5.65;100.00
42111;BME280;27766;52.174;5.456;2023-02-02T02:10:45;101989.91;;;5.64;100.00
42111;BME280;27766;52.174;5.456;2023-02-02T02:13:13;101987.97;;;5.60;100.00
42111;BME280;27766;52.174;5.456;2023-02-02T02:15:48;101983.63;;;5.59;100.00
42111;BME280;27766;52.174;5.456;2023-02-02T02:21:54;101979.03;;;5.53;100.00
42111;BME280;27766;52.174;5.456;2023-02-02T02:39:25;101960.25;;;5.54;100.00
42111;BME280;27766;52.174;5.456;2023-02-02T02:41:58;101962.84;;;5.54;100.00
42111;BME280;27766;52.174;5.456;2023-02-02T02:44:27;101953.34;;;5.53;100.00
42111;BME280;27766;52.174;5.456;2023-02-02T02:46:55;101951.22;;;5.61;100.00
42111;BME280;27766;52.174;5.456;2023-02-02T02:49:23;101944.31;;;5.60;100.00
42111;BME280;27766;52.174;5.456;2023-02-02T02:51:51;101942.63;;;5.61;100.00
42111;BME280;27766;52.174;5.456;2023-02-02T02:54:31;101945.19;;;5.61;100.00
42111;BME280;27766;52.174;5.456;2023-02-02T03:05:32;101944.72;;;5.68;100.00
42111;BME280;27766;52.174;5.456;2023-02-02T03:08:19;101944.84;;;5.69;100.00
42111;BME280;27766;52.174;5.456;2023-02-02T03:10:50;101938.00;;;5.70;100.00
42111;BME280;27766;52.174;5.456;2023-02-02T03:13:18;101959.94;;;5.80;100.00
42111;BME280;27766;52.174;5.456;2023-02-02T03:15:45;101956.75;;;5.84;100.00
42111;BME280;27766;52.174;5.456;2023-02-02T03:18:14;101970.81;;;5.91;100.00
42111;BME280;27766;52.174;5.456;2023-02-02T03:20:44;101974.34;;;5.93;100.00
42111;BME280;27766;52.174;5.456;2023-02-02T03:23:12;101962.50;;;5.95;100.00
42111;BME280;27766;52.174;5.456;2023-02-02T03:25:40;101965.50;;;6.02;100.00
42111;BME280;27766;52.174;5.456;2023-02-02T03:28:07;101976.28;;;6.12;100.00
42111;BME280;27766;52.174;5.456;2023-02-02T03:30:36;101969.47;;;6.12;100.00
42111;BME280;27766;52.174;5.456;2023-02-02T03:33:04;101975.75;;;6.17;100.00
42111;BME280;27766;52.174;5.456;2023-02-02T03:35:32;101971.56;;;6.20;100.00
42111;BME280;27766;52.174;5.456;2023-02-02T03:37:59;101976.88;;;6.23;100.00
42111;BME280;27766;52.174;5.456;2023-02-02T03:40:27;101976.25;;;6.27;100.00
42111;BME280;27766;52.174;5.456;2023-02-02T03:42:54;101966.84;;;6.27;100.00
42111;BME280;27766;52.174;5.456;2023-02-02T03:45:22;101980.81;;;6.32;100.00
42111;BME280;27766;52.174;5.456;2023-02-02T03:47:49;101975.03;;;6.37;100.00
42111;BME280;27766;52.174;5.456;2023-02-02T03:50:17;101964.75;;;6.37;100.00
42111;BME280;27766;52.174;5.456;2023-02-02T03:52:44;101963.16;;;6.39;100.00
42111;BME280;27766;52.174;5.456;2023-02-02T03:55:11;101975.28;;;6.41;100.00
42111;BME280;27766;52.174;5.456;2023-02-02T03:57:38;101980.59;;;6.44;100.00
42111;BME280;27766;52.174;5.456;2023-02-02T04:00:06;101967.03;;;6.47;100.00
42111;BME280;27766;52.174;5.456;2023-02-02T04:02:34;101966.91;;;6.45;100.00
42111;BME280;27766;52.174;5.456;2023-02-02T04:05:01;101960.91;;;6.45;100.00
42111;BME280;27766;52.174;5.456;2023-02-02T04:07:28;101960.72;;;6.42;100.00
42111;BME280;27766;52.174;5.456;2023-02-02T04:09:55;101965.00;;;6.41;100.00
42111;BME280;27766;52.174;5.456;2023-02-02T04:12:23;101964.47;;;6.47;100.00
42111;BME280;27766;52.174;5.456;2023-02-02T04:14:50;101962.69;;;6.46;100.00
42111;BME280;27766;52.174;5.456;2023-02-02T04:17:17;101968.63;;;6.45;100.00
42111;BME280;27766;52.174;5.456;2023-02-02T04:19:44;101956.75;;;6.47;100.00
42111;BME280;27766;52.174;5.456;2023-02-02T04:22:11;101946.53;;;6.48;100.00
42111;BME280;27766;52.174;5.456;2023-02-02T04:24:38;101951.81;;;6.52;100.00
42111;BME280;27766;52.174;5.456;2023-02-02T04:27:05;101940.81;;;6.54;100.00
42111;BME280;27766;52.174;5.456;2023-02-02T04:29:32;101953.59;;;6.53;100.00
42111;BME280;27766;52.174;5.456;2023-02-02T04:31:59;101965.56;;;6.52;100.00
42111;BME280;27766;52.174;5.456;2023-02-02T04:34:27;101975.13;;;6.55;100.00
42111;BME280;27766;52.174;5.456;2023-02-02T04:36:54;101963.88;;;6.53;100.00
42111;BME280;27766;52.174;5.456;2023-02-02T04:39:22;101974.56;;;6.60;100.00
42111;BME280;27766;52.174;5.456;2023-02-02T04:41:49;101962.44;;;6.58;100.00
42111;BME280;27766;52.174;5.456;2023-02-02T04:44:16;101977.28;;;6.63;100.00
42111;BME280;27766;52.174;5.456;2023-02-02T04:46:44;101986.78;;;6.64;100.00
42111;BME280;27766;52.174;5.456;2023-02-02T04:49:11;101982.63;;;6.67;100.00
42111;BME280;27766;52.174;5.456;2023-02-02T04:51:39;101986.22;;;6.70;100.00
42111;BME280;27766;52.174;5.456;2023-02-02T04:54:07;101988.00;;;6.71;100.00
42111;BME280;27766;52.174;5.456;2023-02-02T04:56:34;101994.81;;;6.71;100.00
42111;BME280;27766;52.174;5.456;2023-02-02T04:59:01;101988.81;;;6.70;100.00
42111;BME280;27766;52.174;5.456;2023-02-02T05:01:28;101985.44;;;6.71;100.00
42111;BME280;27766;52.174;5.456;2023-02-02T05:03:57;101973.06;;;6.64;100.00
42111;BME280;27766;52.174;5.456;2023-02-02T05:06:24;101979.25;;;6.68;100.00
42111;BME280;27766;52.174;5.456;2023-02-02T05:08:51;101987.75;;;6.67;100.00
42111;BME280;27766;52.174;5.456;2023-02-02T05:11:21;101990.25;;;6.65;100.00
42111;BME280;27766;52.174;5.456;2023-02-02T05:13:51;101999.56;;;6.63;100.00
42111;BME280;27766;52.174;5.456;2023-02-02T05:16:19;101994.50;;;6.64;100.00
42111;BME280;27766;52.174;5.456;2023-02-02T05:18:49;101993.69;;;6.65;100.00
42111;BME280;27766;52.174;5.456;2023-02-02T05:21:18;101992.72;;;6.63;100.00
42111;BME280;27766;52.174;5.456;2023-02-02T05:23:45;101973.78;;;6.61;100.00
42111;BME280;27766;52.174;5.456;2023-02-02T05:26:15;101984.31;;;6.66;100.00
42111;BME280;27766;52.174;5.456;2023-02-02T05:28:43;101984.31;;;6.66;100.00
42111;BME280;27766;52.174;5.456;2023-02-02T05:31:11;101985.13;;;6.65;100.00
42111;BME280;27766;52.174;5.456;2023-02-02T05:33:38;102004.66;;;6.61;100.00
42111;BME280;27766;52.174;5.456;2023-02-02T05:36:06;101991.13;;;6.65;100.00
42111;BME280;27766;52.174;5.456;2023-02-02T05:38:33;101993.78;;;6.67;100.00
42111;BME280;27766;52.174;5.456;2023-02-02T05:41:01;101985.25;;;6.68;100.00
42111;BME280;27766;52.174;5.456;2023-02-02T05:43:29;101989.53;;;6.68;100.00
42111;BME280;27766;52.174;5.456;2023-02-02T05:45:57;101995.72;;;6.71;100.00
42111;BME280;27766;52.174;5.456;2023-02-02T05:48:25;101989.66;;;6.71;100.00
42111;BME280;27766;52.174;5.456;2023-02-02T05:50:58;101990.41;;;6.68;100.00
42111;BME280;27766;52.174;5.456;2023-02-02T05:53:29;101976.34;;;6.61;100.00
42111;BME280;27766;52.174;5.456;2023-02-02T05:55:57;101992.03;;;6.66;100.00
42111;BME280;27766;52.174;5.456;2023-02-02T05:58:24;102002.31;;;6.66;100.00
42111;BME280;27766;52.174;5.456;2023-02-02T06:00:51;101998.78;;;6.64;100.00
42111;BME280;27766;52.174;5.456;2023-02-02T06:03:23;102005.44;;;6.60;100.00
42111;BME280;27766;52.174;5.456;2023-02-02T06:05:50;102008.75;;;6.58;100.00
42111;BME280;27766;52.174;5.456;2023-02-02T06:08:17;102009.63;;;6.58;100.00
42111;BME280;27766;52.174;5.456;2023-02-02T06:10:44;102000.78;;;6.53;100.00
42111;BME280;27766;52.174;5.456;2023-02-02T06:13:11;102000.34;;;6.45;100.00
42111;BME280;27766;52.174;5.456;2023-02-02T06:15:38;102010.91;;;6.50;100.00
42111;BME280;27766;52.174;5.456;2023-02-02T06:18:08;102001.59;;;6.52;100.00
42111;BME280;27766;52.174;5.456;2023-02-02T06:20:36;102007.69;;;6.54;100.00
42111;BME280;27766;52.174;5.456;2023-02-02T06:23:04;102003.09;;;6.48;100.00
42111;BME280;27766;52.174;5.456;2023-02-02T06:25:31;102013.31;;;6.47;100.00
42111;BME280;27766;52.174;5.456;2023-02-02T06:27:59;102011.56;;;6.46;100.00
42111;BME280;27766;52.174;5.456;2023-02-02T06:30:27;102010.50;;;6.42;100.00
42111;BME280;27766;52.174;5.456;2023-02-02T06:32:54;102015.53;;;6.41;100.00
42111;BME280;27766;52.174;5.456;2023-02-02T06:35:21;102006.53;;;6.32;100.00
42111;BME280;27766;52.174;5.456;2023-02-02T06:37:49;102014.88;;;6.28;100.00
42111;BME280;27766;52.174;5.456;2023-02-02T06:40:16;102025.50;;;6.34;100.00
42111;BME280;27766;52.174;5.456;2023-02-02T06:42:43;102028.88;;;6.33;100.00
42111;BME280;27766;52.174;5.456;2023-02-02T06:45:10;102020.03;;;6.28;100.00
42111;BME280;27766;52.174;5.456;2023-02-02T06:47:38;102019.97;;;6.27;100.00
42111;BME280;27766;52.174;5.456;2023-02-02T06:50:05;102030.56;;;6.33;100.00
42111;BME280;27766;52.174;5.456;2023-02-02T06:52:32;102026.28;;;6.33;100.00
42111;BME280;27766;52.174;5.456;2023-02-02T06:54:59;102030.66;;;6.34;100.00
42111;BME280;27766;52.174;5.456;2023-02-02T06:57:27;102051.22;;;6.34;100.00
42111;BME280;27766;52.174;5.456;2023-02-02T06:59:54;102043.34;;;6.31;100.00
42111;BME280;27766;52.174;5.456;2023-02-02T07:02:21;102046.06;;;6.34;100.00
42111;BME280;27766;52.174;5.456;2023-02-02T07:04:50;102037.06;;;6.26;100.00
42111;BME280;27766;52.174;5.456;2023-02-02T07:07:17;102038.03;;;6.28;100.00
42111;BME280;27766;52.174;5.456;2023-02-02T07:09:44;102026.78;;;6.26;100.00
42111;BME280;27766;52.174;5.456;2023-02-02T07:12:11;102031.75;;;6.23;100.00
42111;BME280;27766;52.174;5.456;2023-02-02T07:14:38;102032.56;;;6.22;100.00
42111;BME280;27766;52.174;5.456;2023-02-02T07:17:05;102040.69;;;6.30;100.00
42111;BME280;27766;52.174;5.456;2023-02-02T07:19:32;102037.97;;;6.27;100.00
42111;BME280;27766;52.174;5.456;2023-02-02T07:22:00;102037.84;;;6.25;100.00
42111;BME280;27766;52.174;5.456;2023-02-02T07:24:27;102041.31;;;6.26;100.00
42111;BME280;27766;52.174;5.456;2023-02-02T07:26:54;102042.13;;;6.25;100.00
42111;BME280;27766;52.174;5.456;2023-02-02T07:29:24;102050.03;;;6.28;100.00
42111;BME280;27766;52.174;5.456;2023-02-02T07:31:51;102054.97;;;6.25;100.00
42111;BME280;27766;52.174;5.456;2023-02-02T07:34:19;102031.41;;;6.17;100.00
42111;BME280;27766;52.174;5.456;2023-02-02T07:36:46;102056.81;;;6.27;100.00
42111;BME280;27766;52.174;5.456;2023-02-02T07:39:13;102056.91;;;6.29;100.00
42111;BME280;27766;52.174;5.456;2023-02-02T07:41:40;102066.13;;;6.25;100.00
42111;BME280;27766;52.174;5.456;2023-02-02T07:44:12;102075.16;;;6.33;100.00
42111;BME280;27766;52.174;5.456;2023-02-02T07:46:43;102076.84;;;6.33;100.00
42111;BME280;27766;52.174;5.456;2023-02-02T07:49:15;102059.91;;;6.37;100.00
42111;BME280;27766;52.174;5.456;2023-02-02T07:51:43;102071.78;;;6.34;100.00
42111;BME280;27766;52.174;5.456;2023-02-02T07:54:14;102080.81;;;6.43;100.00
42111;BME280;27766;52.174;5.456;2023-02-02T07:56:41;102072.31;;;6.44;100.00
42111;BME280;27766;52.174;5.456;2023-02-02T07:59:09;102083.56;;;6.46;100.00
42111;BME280;27766;52.174;5.456;2023-02-02T08:01:36;102072.13;;;6.41;100.00
42111;BME280;27766;52.174;5.456;2023-02-02T08:04:04;102086.28;;;6.49;100.00
42111;BME280;27766;52.174;5.456;2023-02-02T08:06:34;102080.41;;;6.52;100.00
42111;BME280;27766;52.174;5.456;2023-02-02T08:09:03;102095.16;;;6.54;100.00
42111;BME280;27766;52.174;5.456;2023-02-02T08:11:31;102089.28;;;6.57;100.00
42111;BME280;27766;52.174;5.456;2023-02-02T08:13:59;102095.50;;;6.60;100.00
42111;BME280;27766;52.174;5.456;2023-02-02T08:16:28;102109.47;;;6.65;100.00
42111;BME280;27766;52.174;5.456;2023-02-02T08:18:59;102099.91;;;6.63;100.00
42111;BME280;27766;52.174;5.456;2023-02-02T08:21:26;102097.53;;;6.66;100.00
42111;BME280;27766;52.174;5.456;2023-02-02T08:23:54;102119.94;;;6.69;100.00
42111;BME280;27766;52.174;5.456;2023-02-02T08:26:26;102119.06;;;6.68;100.00
42111;BME280;27766;52.174;5.456;2023-02-02T08:29:02;102122.59;;;6.70;100.00
42111;BME280;27766;52.174;5.456;2023-02-02T08:31:35;102120.81;;;6.69;100.00
42111;BME280;27766;52.174;5.456;2023-02-02T08:34:04;102127.69;;;6.69;100.00
42111;BME280;27766;52.174;5.456;2023-02-02T08:36:31;102104.00;;;6.59;100.00
42111;BME280;27766;52.174;5.456;2023-02-02T08:39:03;102132.09;;;6.71;100.00
42111;BME280;27766;52.174;5.456;2023-02-02T08:41:32;102138.38;;;6.76;100.00
42111;BME280;27766;52.174;5.456;2023-02-02T08:43:59;102138.38;;;6.76;100.00
42111;BME280;27766;52.174;5.456;2023-02-02T08:46:27;102141.84;;;6.77;100.00
42111;BME280;27766;52.174;5.456;2023-02-02T08:48:54;102145.47;;;6.80;100.00
42111;BME280;27766;52.174;5.456;2023-02-02T08:51:21;102155.13;;;6.85;100.00
42111;BME280;27766;52.174;5.456;2023-02-02T08:53:49;102139.59;;;6.83;100.00
42111;BME280;27766;52.174;5.456;2023-02-02T08:56:19;102157.31;;;6.93;100.00
42111;BME280;27766;52.174;5.456;2023-02-02T08:58:48;102157.47;;;6.96;100.00
42111;BME280;27766;52.174;5.456;2023-02-02T09:03:44;102152.31;;;6.96;100.00
42111;BME280;27766;52.174;5.456;2023-02-02T09:06:15;102158.44;;;6.99;100.00
42111;BME280;27766;52.174;5.456;2023-02-02T09:08:44;102169.78;;;7.02;100.00
42111;BME280;27766;52.174;5.456;2023-02-02T09:11:16;102165.63;;;7.04;100.00
42111;BME280;27766;52.174;5.456;2023-02-02T09:13:45;102178.56;;;7.06;100.00
42111;BME280;27766;52.174;5.456;2023-02-02T09:16:15;102181.28;;;7.09;100.00
42111;BME280;27766;52.174;5.456;2023-02-02T09:18:43;102180.75;;;7.15;100.00
42111;BME280;27766;52.174;5.456;2023-02-02T09:21:13;102189.19;;;7.12;100.00
42111;BME280;27766;52.174;5.456;2023-02-02T09:23:41;102189.91;;;7.09;100.00
42111;BME280;27766;52.174;5.456;2023-02-02T09:26:25;102199.66;;;7.15;100.00
42111;BME280;27766;52.174;5.456;2023-02-02T09:28:54;102204.16;;;7.19;100.00
42111;BME280;27766;52.174;5.456;2023-02-02T09:31:22;102207.47;;;7.17;100.00
42111;BME280;27766;52.174;5.456;2023-02-02T09:33:49;102206.59;;;7.16;100.00
42111;BME280;27766;52.174;5.456;2023-02-02T09:36:18;102206.72;;;7.19;100.00
42111;BME280;27766;52.174;5.456;2023-02-02T09:38:47;102209.25;;;7.18;100.00
42111;BME280;27766;52.174;5.456;2023-02-02T09:47:15;102199.81;;;7.18;100.00
42111;BME280;27766;52.174;5.456;2023-02-02T09:49:28;102201.59;;;7.19;100.00
42111;BME280;27766;52.174;5.456;2023-02-02T09:52:07;102196.69;;;7.24;100.00
42111;BME280;27766;52.174;5.456;2023-02-02T09:54:42;102212.13;;;7.24;100.00
42111;BME280;27766;52.174;5.456;2023-02-02T09:57:25;102214.72;;;7.24;100.00
42111;BME280;27766;52.174;5.456;2023-02-02T09:59:55;102199.66;;;7.15;100.00
42111;BME280;27766;52.174;5.456;2023-02-02T10:02:30;102226.59;;;7.22;100.00
42111;BME280;27766;52.174;5.456;2023-02-02T10:05:10;102215.44;;;7.21;100.00
42111;BME280;27766;52.174;5.456;2023-02-02T10:07:42;102220.59;;;7.21;100.00
42111;BME280;27766;52.174;5.456;2023-02-02T10:10:22;102224.16;;;7.23;100.00
42111;BME280;27766;52.174;5.456;2023-02-02T10:12:57;102230.25;;;7.25;100.00
42111;BME280;27766;52.174;5.456;2023-02-02T10:15:41;102232.81;;;7.25;100.00
42111;BME280;27766;52.174;5.456;2023-02-02T10:18:14;102243.13;;;7.25;100.00
42111;BME280;27766;52.174;5.456;2023-02-02T10:21:09;102242.97;;;7.22;100.00
42111;BME280;27766;52.174;5.456;2023-02-02T10:23:42;102249.63;;;7.19;100.00
42111;BME280;27766;52.174;5.456;2023-02-02T10:26:19;102246.97;;;7.17;100.00
42111;BME280;27766;52.174;5.456;2023-02-02T10:29:16;102243.84;;;7.23;100.00
42111;BME280;27766;52.174;5.456;2023-02-02T10:31:53;102253.53;;;7.27;100.00
42111;BME280;27766;52.174;5.456;2023-02-02T10:46:00;102265.69;;;7.29;100.00
42111;BME280;27766;52.174;5.456;2023-02-02T10:48:32;102264.69;;;7.27;100.00
42111;BME280;27766;52.174;5.456;2023-02-02T10:51:10;102254.41;;;7.27;100.00
42111;BME280;27766;52.174;5.456;2023-02-02T10:53:42;102262.31;;;7.31;100.00
42111;BME280;27766;52.174;5.456;2023-02-02T10:56:18;102262.31;;;7.31;100.00
42111;BME280;27766;52.174;5.456;2023-02-02T11:01:27;102251.81;;;7.27;100.00
42111;BME280;27766;52.174;5.456;2023-02-02T11:03:54;102258.94;;;7.32;100.00
42111;BME280;27766;52.174;5.456;2023-02-02T11:06:41;102260.53;;;7.29;100.00
42111;BME280;27766;52.174;5.456;2023-02-02T11:09:20;102255.84;;;7.22;100.00
42111;BME280;27766;52.174;5.456;2023-02-02T11:11:54;102256.91;;;7.26;100.00
42111;BME280;27766;52.174;5.456;2023-02-02T11:14:38;102258.56;;;7.25;100.00
42111;BME280;27766;52.174;5.456;2023-02-02T11:17:23;102256.78;;;7.24;100.00
42111;BME280;27766;52.174;5.456;2023-02-02T11:19:51;102255.84;;;7.22;100.00
42111;BME280;27766;52.174;5.456;2023-02-02T11:22:29;102247.41;;;7.25;100.00
42111;BME280;27766;52.174;5.456;2023-02-02T11:25:00;102250.28;;;7.31;100.00
42111;BME280;27766;52.174;5.456;2023-02-02T11:27:41;102241.25;;;7.23;100.00
42111;BME280;27766;52.174;5.456;2023-02-02T11:30:33;102251.03;;;7.28;100.00
42111;BME280;27766;52.174;5.456;2023-02-02T11:33:30;102258.94;;;7.32;100.00
42111;BME280;27766;52.174;5.456;2023-02-02T11:36:00;102260.78;;;7.34;100.00
42111;BME280;27766;52.174;5.456;2023-02-02T11:38:28;102258.81;;;7.30;100.00
42111;BME280;27766;52.174;5.456;2023-02-02T11:41:01;102261.56;;;7.33;100.00
42111;BME280;27766;52.174;5.456;2023-02-02T11:43:53;102262.63;;;7.37;100.00
42111;BME280;27766;52.174;5.456;2023-02-02T11:46:28;102266.97;;;7.38;100.00
42111;BME280;27766;52.174;5.456;2023-02-02T11:51:30;102264.72;;;7.44;100.00
42111;BME280;27766;52.174;5.456;2023-02-02T11:54:17;102265.59;;;7.44;100.00
42111;BME280;27766;52.174;5.456;2023-02-02T11:56:51;102258.53;;;7.40;100.00
42111;BME280;27766;52.174;5.456;2023-02-02T11:59:34;102261.16;;;7.42;100.00
42111;BME280;27766;52.174;5.456;2023-02-02T12:04:39;102232.59;;;7.37;100.00
42111;BME280;27766;52.174;5.456;2023-02-02T12:07:21;102250.06;;;7.43;100.00
42111;BME280;27766;52.174;5.456;2023-02-02T12:09:50;102264.72;;;7.44;100.00
42111;BME280;27766;52.174;5.456;2023-02-02T12:12:40;102255.28;;;7.44;100.00
42111;BME280;27766;52.174;5.456;2023-02-02T12:30:35;102245.41;;;7.36;100.00
42111;BME280;27766;52.174;5.456;2023-02-02T12:33:22;102251.59;;;7.39;100.00
42111;BME280;27766;52.174;5.456;2023-02-02T12:44:20;102242.50;;;7.29;100.00
42111;BME280;27766;52.174;5.456;2023-02-02T12:49:55;102247.91;;;7.34;100.00
42111;BME280;27766;52.174;5.456;2023-02-02T12:55:41;102242.16;;;7.40;100.00
42111;BME280;27766;52.174;5.456;2023-02-02T13:07:07;102233.88;;;7.29;100.00
42111;BME280;27766;52.174;5.456;2023-02-02T13:09:50;102235.50;;;7.27;100.00
42111;BME280;27766;52.174;5.456;2023-02-02T13:12:24;102233.53;;;7.23;100.00
42111;BME280;27766;52.174;5.456;2023-02-02T13:15:02;102233.28;;;7.18;100.00
42111;BME280;27766;52.174;5.456;2023-02-02T13:17:47;102236.59;;;7.16;100.00
42111;BME280;27766;52.174;5.456;2023-02-02T13:20:40;102234.00;;;7.16;100.00
42111;BME280;27766;52.174;5.456;2023-02-02T13:23:16;102226.94;;;7.11;100.00
42111;BME280;27766;52.174;5.456;2023-02-02T13:28:55;102239.69;;;7.10;100.00
42111;BME280;27766;52.174;5.456;2023-02-02T13:31:54;102242.19;;;7.08;100.00
42111;BME280;27766;52.174;5.456;2023-02-02T13:34:47;102234.19;;;6.87;100.00
42111;BME280;27766;52.174;5.456;2023-02-02T13:40:27;102243.59;;;6.87;100.00
42111;BME280;27766;52.174;5.456;2023-02-02T14:00:25;102236.50;;;6.82;100.00
42111;BME280;27766;52.174;5.456;2023-02-02T14:02:58;102239.00;;;6.81;100.00
42111;BME280;27766;52.174;5.456;2023-02-02T14:05:39;102233.13;;;6.84;100.00
42111;BME280;27766;52.174;5.456;2023-02-02T14:08:16;102220.81;;;6.78;100.00
42111;BME280;27766;52.174;5.456;2023-02-02T14:10:56;102234.03;;;6.84;100.00
42111;BME280;27766;52.174;5.456;2023-02-02T14:13:41;102239.06;;;6.82;100.00
42111;BME280;27766;52.174;5.456;2023-02-02T14:18:59;102239.19;;;6.84;100.00
42111;BME280;27766;52.174;5.456;2023-02-02T14:24:37;102249.47;;;6.84;100.00
42111;BME280;27766;52.174;5.456;2023-02-02T14:34:59;102236.88;;;6.74;100.00
42111;BME280;27766;52.174;5.456;2023-02-02T14:37:55;102244.31;;;6.84;100.00
42111;BME280;27766;52.174;5.456;2023-02-02T14:43:23;102257.09;;;6.82;100.00
42111;BME280;27766;52.174;5.456;2023-02-02T14:48:42;102254.63;;;6.84;100.00
42111;BME280;27766;52.174;5.456;2023-02-02T14:51:20;102256.22;;;6.82;100.00
42111;BME280;27766;52.174;5.456;2023-02-02T14:54:03;102265.16;;;6.89;100.00
42111;BME280;27766;52.174;5.456;2023-02-02T14:56:50;102268.28;;;6.83;100.00
42111;BME280;27766;52.174;5.456;2023-02-02T14:59:26;102270.66;;;6.80;100.00
42111;BME280;27766;52.174;5.456;2023-02-02T15:04:29;102264.38;;;6.75;100.00
42111;BME280;27766;52.174;5.456;2023-02-02T15:09:53;102272.03;;;6.73;100.00
42111;BME280;27766;52.174;5.456;2023-02-02T15:20:29;102277.25;;;6.75;100.00
42111;BME280;27766;52.174;5.456;2023-02-02T15:25:31;102279.63;;;6.72;100.00
42111;BME280;27766;52.174;5.456;2023-02-02T15:30:29;102271.13;;;6.73;100.00
42111;BME280;27766;52.174;5.456;2023-02-02T15:33:10;102272.91;;;6.74;100.00
42111;BME280;27766;52.174;5.456;2023-02-02T15:35:41;102270.25;;;6.72;100.00
42111;BME280;27766;52.174;5.456;2023-02-02T15:38:14;102273.88;;;6.76;100.00
42111;BME280;27766;52.174;5.456;2023-02-02T15:40:43;102274.88;;;6.78;100.00
42111;BME280;27766;52.174;5.456;2023-02-02T15:43:11;102274.03;;;6.79;100.00
42111;BME280;27766;52.174;5.456;2023-02-02T15:45:49;102276.63;;;6.79;100.00